AirNav   Duncan Aviation - Near you to keep you flying
 
 636 users online  

63WI Flying H Airport
Monroe, Wisconsin, USA

GOING TO MONROE?


FAA INFORMATION EFFECTIVE 26 JANUARY 2023

Location

FAA Identifier: 63WI
Lat/Long: 42-39-57.0220N 089-44-15.4380W
42-39.950367N 089-44.257300W
42.6658394,-89.7376217
(estimated)
Elevation: 1020 ft. / 311 m (estimated)
Variation: 01E (1985)
From city: 6 miles NW of MONROE, WI
Time zone: UTC -6 (UTC -5 during Daylight Saving Time)
Zip code: 53566

Airport Operations

Airport use: Private use. Permission required prior to landing
Activation date: 12/1979
Control tower: no
ARTCC: CHICAGO CENTER
FSS: GREEN BAY FLIGHT SERVICE STATION
Attendance: IREG IREG DAYLIGHT HOURS
Wind indicator: yes
Segmented circle: no

Airport Communications

WX AWOS-3 at EFT (7 nm SE): 118.375 (608-328-8359)

Nearby radio navigation aids

VOR radial/distance  VOR name  Freq  Var
JVLr280/28.7JANESVILLE VOR/DME114.3003E
MSNr208/33.6MADISON VORTAC108.6003E

Airport Services

Runway Information

Runway 14/32

Dimensions: 2250 x 50 ft. / 686 x 15 m
Surface: turf
RUNWAY 14  RUNWAY 32
Traffic pattern: leftleft
Obstructions: 30 ft. pline, 2500 ft. from runway
ALSO FENCE ACROSS AER 14.
none

Airport Ownership and Management from official FAA records

Ownership: Privately-owned
Owner: CHARLES W. HUBER
1122 29TH AVE
MONROE, WI 53566
Phone 608-873-5411
Manager: CHARLES W. HUBER
1122 29TH AVE
MONROE, WI 53566
Phone 608-873-5411

Airport Operational Statistics

Aircraft based on the field: 3
Single engine airplanes: 3
    

Additional Remarks

FOR CD CTC CHICAGO ARTCC AT 630-906-8921.

Instrument Procedures

There are no published instrument procedures at 63WI.

Some nearby airports with instrument procedures:

KEFT - Monroe Municipal Airport (7 nm SE)
KMRJ - Iowa County Airport (26 nm NW)
KFEP - Albertus Airport (26 nm S)
C29 - Middleton Municipal Airport - Morey Field (28 nm N)
KJVL - Southern Wisconsin Regional Airport (31 nm E)
 
Loc | Ops | Rwys | IFR | FBO | Links
Com | Nav | Svcs | Stats | Notes
Area around 63WI (Flying H Airport)
 
Road maps at: MapQuest Bing Google
 
Aerial photo
No photo
 
Sectional chart

 
Airport distance calculator
Flying to Flying H Airport? Find the distance to fly.

From to 63WI

Sunrise and sunset
Times for 27-Jan-2023
 Local
(UTC-6)
 Zulu
(UTC)
Morning civil twilight06:4912:49
Sunrise07:1913:19
Sunset17:0423:04
Evening civil twilight17:3523:35

Current date and time
Zulu (UTC)  27-Jan-2023 11:30:03
Local (UTC-6)  27-Jan-2023 05:30:03
 
METAR
KEFT 
8nm SE 
271115Z AUTO 18015KT 10SM SCT110 M10/M12 A2973 RMK AO2 T11001125
TAF
KJVL 
32nm E 
270926Z 2709/2806 20013KT P6SM SCT120 BKN200 FM271400 20017G30KT 3SM -SN BR OVC040 FM271600 20017G30KT 2SM -SHSN BR OVC015 FM272000 24015G25KT 6SM BR BKN014 FM280000 29015G25KT P6SM BKN060
KMSN 
33nm NE 
270628Z 2706/2806 22005KT P6SM SKC FM270700 22010KT P6SM BKN010 FM270900 18012KT P6SM SCT025 BKN120 FM271300 20014G27KT 1 1/2SM -SN OVC020 FM271700 20015G25KT 2SM -SN OVC015 FM271900 23015G23KT P6SM VCSH OVC011 FM280000 28014G24KT P6SM BKN040
KRFD 
40nm SE 
270520Z 2706/2806 22007KT P6SM FEW015 FM270800 18012G20KT P6SM SCT015 BKN080 FM271300 20015G30KT 2SM -SN SCT008 OVC012 TEMPO 2713/2717 3/4SM -SN BLSN OVC008 FM271700 23017G27KT 6SM -SHSN SCT006 OVC010 TEMPO 2717/2720 3SM -SHSN OVC006 FM272200 26014G24KT P6SM OVC012 FM280100 28010KT P6SM SCT015
NOTAMs
Click for the latest NOTAMs
NOTAMs are issued by the DoD/FAA and will open in a separate window not controlled by AirNav.

 

 
 

Would you like to see your business listed on this page?

 If your business provides an interesting product or service to pilots, flight crews, aircraft, or users of the Flying H Airport, you should consider listing it here.  To start the listing process, click on the button below
 
Add a business
 

Other Pages about Flying H Airport

Update a link
 
Copyright © AirNav, LLC. All rights reserved. Privacy Policy  Contact